Time;durP1;ratioP1;P1;durP2;ratioP2;P2;SDS_P1;SDS_P2;PMS_P1;PMS_P2;Temp;Humidity;BMP_temperature;BMP_pressure;BME280_temperature;BME280_humidity;BME280_pressure;Samples;Min_cycle;Max_cycle;Signal;HPM_P1;HPM_P2
2021/05/07 00:01:17;;;;;;;1.50;1.20;;;7.00;98.20;;;;;;4996651;28;20507;-78
2021/05/07 00:03:44;;;;;;;1.50;1.20;;;7.00;98.20;;;;;;5007896;28;20853;-75
2021/05/07 00:06:11;;;;;;;1.50;1.20;;;7.00;98.20;;;;;;5001318;28;20491;-78
2021/05/07 00:08:40;;;;;;;1.57;1.30;;;7.00;98.20;;;;;;5017162;28;21068;-76
2021/05/07 00:11:08;;;;;;;1.50;1.20;;;7.00;98.20;;;;;;4990143;28;20470;-75
2021/05/07 00:13:35;;;;;;;1.50;1.20;;;6.90;98.20;;;;;;5001611;28;20466;-76
2021/05/07 00:16:01;;;;;;;1.53;1.30;;;6.90;98.20;;;;;;4997194;28;20489;-77
2021/05/07 00:18:27;;;;;;;1.50;1.20;;;6.80;98.20;;;;;;5023681;28;20464;-75
2021/05/07 00:20:54;;;;;;;1.50;1.20;;;6.80;98.20;;;;;;4993020;28;20474;-79
2021/05/07 00:23:21;;;;;;;1.53;1.30;;;6.80;98.20;;;;;;5021664;28;20836;-80
2021/05/07 00:25:50;;;;;;;1.57;1.30;;;6.70;98.20;;;;;;5000985;28;20479;-77
2021/05/07 00:28:17;;;;;;;1.50;1.20;;;6.60;98.20;;;;;;5026905;28;20484;-77
2021/05/07 00:30:44;;;;;;;1.53;1.30;;;6.60;98.20;;;;;;5006221;28;20467;-79
2021/05/07 00:33:10;;;;;;;1.53;1.20;;;6.50;98.20;;;;;;5012263;28;20484;-82
2021/05/07 00:35:37;;;;;;;1.53;1.20;;;6.40;98.20;;;;;;5008380;28;20499;-77
2021/05/07 00:38:05;;;;;;;1.57;1.30;;;6.40;98.20;;;;;;5016451;28;20872;-79
2021/05/07 00:40:32;;;;;;;1.50;1.20;;;6.40;98.20;;;;;;5005479;28;20647;-77
2021/05/07 00:42:59;;;;;;;1.50;1.37;;;6.40;98.20;;;;;;5007762;28;20857;-75
2021/05/07 00:45:26;;;;;;;1.60;1.40;;;6.40;98.20;;;;;;5009254;28;20681;-78
2021/05/07 00:47:56;;;;;;;1.50;1.20;;;6.40;98.20;;;;;;5011281;28;21040;-79
2021/05/07 00:50:25;;;;;;;1.50;1.27;;;6.40;98.20;;;;;;5002256;28;20696;-75
2021/05/07 00:52:51;;;;;;;1.50;1.27;;;6.40;98.20;;;;;;4995472;28;20643;-76
2021/05/07 00:55:17;;;;;;;1.50;1.30;;;6.30;98.20;;;;;;5008167;28;20487;-76
2021/05/07 00:57:43;;;;;;;1.53;1.30;;;6.30;98.20;;;;;;5002997;28;20483;-78
2021/05/07 01:00:12;;;;;;;1.50;1.20;;;6.30;98.20;;;;;;5009611;28;21050;-77
2021/05/07 01:02:38;;;;;;;1.60;1.30;;;6.20;98.20;;;;;;5000055;28;20476;-77
2021/05/07 01:05:05;;;;;;;1.50;1.30;;;6.20;98.20;;;;;;5002403;28;20502;-78
2021/05/07 01:07:32;;;;;;;1.60;1.30;;;6.20;98.20;;;;;;5007208;28;21118;-76
2021/05/07 01:10:00;;;;;;;1.50;1.20;;;6.10;98.20;;;;;;5009465;28;20829;-78
2021/05/07 01:12:27;;;;;;;1.50;1.30;;;6.10;98.20;;;;;;4993996;28;20492;-76
2021/05/07 01:15:08;;;;;;;1.53;1.37;;;6.10;98.20;;;;;;5003946;28;20472;-79
2021/05/07 01:17:38;;;;;;;1.57;1.27;;;6.10;98.20;;;;;;5000388;28;20476;-79
2021/05/07 01:20:11;;;;;;;1.53;1.30;;;6.20;98.20;;;;;;5014984;28;20467;-77
2021/05/07 01:22:38;;;;;;;1.50;1.30;;;6.20;98.20;;;;;;4988068;28;20477;-76
2021/05/07 01:25:06;;;;;;;1.53;1.30;;;6.20;98.20;;;;;;5005526;28;20464;-77
2021/05/07 01:27:36;;;;;;;1.50;1.30;;;6.30;98.20;;;;;;5017005;28;20546;-77
2021/05/07 01:30:09;;;;;;;1.53;1.30;;;6.30;98.20;;;;;;5007006;28;20831;-77
2021/05/07 01:32:36;;;;;;;1.50;1.20;;;6.30;98.20;;;;;;5019890;28;20481;-79
2021/05/07 01:35:03;;;;;;;1.50;1.30;;;6.30;98.20;;;;;;5008997;28;20464;-78
2021/05/07 01:37:30;;;;;;;1.57;1.30;;;6.30;98.20;;;;;;5002194;28;20540;-78
2021/05/07 01:39:57;;;;;;;1.50;1.30;;;6.30;98.20;;;;;;5004922;28;20456;-76
2021/05/07 01:42:23;;;;;;;1.53;1.30;;;6.30;98.20;;;;;;4985064;28;20485;-75
2021/05/07 01:44:49;;;;;;;1.50;1.30;;;6.30;98.20;;;;;;5008560;28;20452;-76
2021/05/07 01:47:15;;;;;;;1.60;1.40;;;6.20;98.20;;;;;;5011140;28;20479;-75
2021/05/07 01:49:42;;;;;;;1.50;1.30;;;6.20;98.20;;;;;;5011265;28;20468;-75
2021/05/07 01:52:09;;;;;;;1.57;1.30;;;6.20;98.20;;;;;;5001165;28;20495;-77
2021/05/07 01:54:36;;;;;;;1.60;1.30;;;6.20;98.20;;;;;;5015700;28;20738;-77
2021/05/07 01:57:02;;;;;;;1.53;1.30;;;6.10;98.20;;;;;;5009844;28;20502;-79
2021/05/07 01:59:28;;;;;;;1.50;1.20;;;6.10;98.20;;;;;;5013471;28;20551;-79
2021/05/07 02:01:55;;;;;;;1.50;1.30;;;6.10;98.20;;;;;;5000524;28;20514;-78
2021/05/07 02:04:21;;;;;;;1.50;1.30;;;6.00;98.20;;;;;;5014017;28;21114;-76
2021/05/07 02:06:47;;;;;;;1.70;1.60;;;6.00;98.20;;;;;;5010169;28;20483;-79
2021/05/07 02:09:13;;;;;;;1.57;1.27;;;6.00;98.20;;;;;;5009908;28;21026;-75
2021/05/07 02:11:40;;;;;;;1.53;1.30;;;6.00;98.20;;;;;;4992678;28;20488;-76
2021/05/07 02:14:07;;;;;;;1.50;1.20;;;6.00;98.20;;;;;;5007798;28;20456;-76
2021/05/07 02:16:33;;;;;;;1.50;1.30;;;5.90;98.20;;;;;;5000517;28;21096;-75
2021/05/07 02:18:59;;;;;;;1.57;1.30;;;5.90;98.20;;;;;;5014355;28;20465;-78
2021/05/07 02:21:25;;;;;;;1.50;1.30;;;5.90;98.20;;;;;;5003108;28;20486;-78
2021/05/07 02:23:52;;;;;;;1.60;1.40;;;5.90;98.20;;;;;;5011968;28;20622;-77
2021/05/07 02:26:18;;;;;;;1.50;1.23;;;5.80;98.20;;;;;;5003581;28;20496;-77
2021/05/07 02:28:45;;;;;;;5.53;4.23;;;5.80;98.20;;;;;;5017343;28;20499;-78
2021/05/07 02:31:11;;;;;;;1.50;1.30;;;5.80;98.20;;;;;;4992260;28;20491;-79
2021/05/07 02:33:38;;;;;;;1.57;1.30;;;5.80;98.20;;;;;;5020266;28;20515;-77
2021/05/07 02:36:06;;;;;;;1.57;1.30;;;5.80;98.20;;;;;;5002114;28;20499;-78
2021/05/07 02:38:34;;;;;;;1.60;1.30;;;5.80;98.20;;;;;;5025333;28;20460;-77
2021/05/07 02:41:00;;;;;;;1.57;1.30;;;5.80;98.20;;;;;;4995884;28;20458;-77
2021/05/07 02:43:28;;;;;;;1.50;1.30;;;5.80;98.20;;;;;;5023528;28;20464;-80
2021/05/07 02:45:55;;;;;;;1.50;1.20;;;5.80;98.20;;;;;;5001472;28;20526;-77
2021/05/07 02:48:22;;;;;;;1.50;1.30;;;5.80;98.20;;;;;;5003138;28;20876;-80
2021/05/07 02:50:48;;;;;;;1.50;1.33;;;5.80;98.20;;;;;;4998518;28;20492;-78
2021/05/07 02:53:14;;;;;;;1.53;1.30;;;5.70;98.20;;;;;;5008523;28;20471;-77
2021/05/07 02:55:41;;;;;;;1.50;1.23;;;5.80;98.20;;;;;;5013053;28;20551;-78
2021/05/07 02:58:07;;;;;;;1.53;1.30;;;5.80;98.20;;;;;;4992642;28;20479;-79
2021/05/07 03:00:33;;;;;;;1.50;1.30;;;5.80;98.20;;;;;;5008982;28;20468;-79
2021/05/07 03:03:00;;;;;;;1.53;1.30;;;5.80;98.20;;;;;;5017728;28;20907;-78
2021/05/07 03:05:27;;;;;;;1.60;1.30;;;5.80;98.20;;;;;;5012230;28;20475;-79
2021/05/07 03:07:53;;;;;;;1.50;1.30;;;5.80;98.20;;;;;;5007984;28;20549;-80
2021/05/07 03:10:20;;;;;;;1.53;1.30;;;5.80;98.20;;;;;;5008852;28;20475;-79
2021/05/07 03:12:46;;;;;;;1.50;1.30;;;5.80;98.20;;;;;;5017142;28;20490;-78
2021/05/07 03:15:13;;;;;;;1.50;1.30;;;5.80;98.20;;;;;;5010952;28;20460;-79
2021/05/07 03:17:40;;;;;;;1.60;1.30;;;5.90;98.20;;;;;;5007865;28;20503;-78
2021/05/07 03:20:08;;;;;;;1.60;1.43;;;5.90;98.20;;;;;;5010349;28;20464;-82
2021/05/07 03:22:35;;;;;;;1.57;1.30;;;5.90;98.20;;;;;;5006579;28;20561;-78
2021/05/07 03:25:01;;;;;;;1.50;1.20;;;6.00;98.20;;;;;;5012731;28;20997;-78
2021/05/07 03:27:27;;;;;;;1.60;1.30;;;6.00;98.20;;;;;;5007005;28;20597;-79
2021/05/07 03:29:53;;;;;;;1.50;1.20;;;6.00;98.20;;;;;;5008430;28;20996;-78
2021/05/07 03:32:19;;;;;;;1.53;1.30;;;6.00;98.20;;;;;;5008820;28;20493;-78
2021/05/07 03:34:48;;;;;;;1.50;1.20;;;6.00;98.20;;;;;;5016003;28;20467;-77
2021/05/07 03:37:15;;;;;;;1.60;1.33;;;6.00;98.20;;;;;;4997720;28;20538;-78
2021/05/07 03:39:42;;;;;;;1.50;1.20;;;6.00;98.20;;;;;;5002397;28;20471;-78
2021/05/07 03:42:09;;;;;;;1.50;1.30;;;6.00;98.20;;;;;;5003631;28;20486;-79
2021/05/07 03:44:35;;;;;;;1.50;1.30;;;6.00;98.20;;;;;;5009767;28;20465;-77
2021/05/07 03:47:02;;;;;;;1.53;1.20;;;6.00;98.20;;;;;;4999300;28;20545;-78
2021/05/07 03:49:28;;;;;;;1.50;1.30;;;6.00;98.20;;;;;;5011191;28;20485;-79
2021/05/07 03:51:55;;;;;;;1.53;1.23;;;5.90;98.20;;;;;;5002439;28;20484;-79
2021/05/07 03:54:22;;;;;;;1.50;1.20;;;5.90;98.20;;;;;;5010589;28;20975;-78
2021/05/07 03:56:48;;;;;;;1.50;1.30;;;5.90;98.20;;;;;;5002010;28;20487;-81
2021/05/07 03:59:14;;;;;;;1.50;1.30;;;5.90;98.20;;;;;;5005481;28;21156;-79
2021/05/07 04:01:41;;;;;;;1.50;1.30;;;5.80;98.20;;;;;;4993703;28;20485;-79
2021/05/07 04:04:09;;;;;;;1.50;1.30;;;5.80;98.20;;;;;;5001032;28;20475;-79
2021/05/07 04:06:35;;;;;;;1.50;1.20;;;5.70;98.20;;;;;;4994714;28;20570;-80
2021/05/07 04:09:03;;;;;;;1.50;1.30;;;5.70;98.20;;;;;;5011034;28;20558;-79
2021/05/07 04:11:32;;;;;;;1.50;1.30;;;5.70;98.20;;;;;;5002831;28;20506;-78
2021/05/07 04:13:58;;;;;;;1.50;1.30;;;5.60;98.20;;;;;;5013643;28;20988;-80
2021/05/07 04:16:25;;;;;;;1.50;1.30;;;5.60;98.20;;;;;;4998613;28;20517;-79
2021/05/07 04:18:54;;;;;;;1.57;1.30;;;5.60;98.20;;;;;;5020190;28;20201;-79
2021/05/07 04:21:21;;;;;;;1.50;1.20;;;5.60;98.20;;;;;;4995988;28;21772;-79
2021/05/07 04:23:47;;;;;;;1.50;1.20;;;5.60;98.20;;;;;;5014365;28;20465;-79
2021/05/07 04:26:13;;;;;;;1.53;1.30;;;5.60;98.20;;;;;;4997898;28;20878;-79
2021/05/07 04:28:40;;;;;;;1.53;1.30;;;5.60;98.20;;;;;;5010464;28;20510;-79
2021/05/07 04:31:07;;;;;;;1.60;1.40;;;5.60;98.20;;;;;;4997123;28;22109;-78
2021/05/07 04:33:33;;;;;;;1.50;1.23;;;5.60;98.20;;;;;;5014456;28;20461;-79
2021/05/07 04:35:59;;;;;;;1.50;1.30;;;5.60;98.20;;;;;;4999087;28;20570;-78
2021/05/07 04:38:26;;;;;;;1.60;1.40;;;5.70;98.20;;;;;;5019859;28;20806;-79
2021/05/07 04:40:52;;;;;;;1.53;1.30;;;5.70;98.20;;;;;;4991448;28;20985;-77
2021/05/07 04:43:18;;;;;;;1.50;1.40;;;5.80;98.20;;;;;;5022185;28;21003;-77
2021/05/07 04:45:45;;;;;;;1.50;1.30;;;5.90;98.20;;;;;;5008349;28;20456;-79
2021/05/07 04:48:13;;;;;;;1.50;1.30;;;6.00;98.20;;;;;;4998006;28;20480;-79
2021/05/07 04:50:40;;;;;;;1.60;1.30;;;6.10;98.20;;;;;;5009197;28;20469;-78
2021/05/07 04:53:06;;;;;;;1.50;1.30;;;6.20;98.20;;;;;;4998349;28;21307;-79
2021/05/07 04:55:32;;;;;;;1.50;1.20;;;6.30;98.20;;;;;;5010358;28;20460;-78
2021/05/07 04:57:59;;;;;;;1.50;1.27;;;6.40;98.20;;;;;;4999353;28;20590;-79
2021/05/07 05:00:26;;;;;;;1.50;1.30;;;6.40;98.20;;;;;;5013506;28;20576;-80
2021/05/07 05:02:53;;;;;;;1.53;1.30;;;6.40;98.20;;;;;;5006290;28;20603;-80
2021/05/07 05:05:20;;;;;;;1.50;1.30;;;6.40;98.20;;;;;;5007964;28;20460;-78
2021/05/07 05:07:50;;;;;;;1.60;1.40;;;6.40;98.20;;;;;;4998334;28;20482;-79
2021/05/07 05:10:17;;;;;;;1.57;1.40;;;6.40;98.20;;;;;;5015162;28;20471;-77
2021/05/07 05:12:43;;;;;;;1.50;1.30;;;6.40;98.20;;;;;;5014123;28;20517;-77
2021/05/07 05:15:11;;;;;;;1.50;1.20;;;6.50;98.20;;;;;;5005707;28;20541;-78
2021/05/07 05:17:37;;;;;;;1.53;1.20;;;6.60;98.20;;;;;;5015709;28;20495;-78
2021/05/07 05:20:06;;;;;;;1.53;1.27;;;6.60;98.20;;;;;;5015848;28;20527;-79
2021/05/07 05:22:32;;;;;;;1.50;1.20;;;6.70;98.20;;;;;;5008735;28;20502;-78
2021/05/07 05:25:04;;;;;;;4.27;3.97;;;6.80;98.20;;;;;;5013434;28;20494;-78
2021/05/07 05:27:30;;;;;;;1.57;1.30;;;6.80;98.20;;;;;;5016785;28;20483;-77
2021/05/07 05:29:56;;;;;;;1.50;1.30;;;6.90;98.20;;;;;;5011037;28;20480;-77
2021/05/07 05:32:23;;;;;;;1.50;1.30;;;6.90;98.20;;;;;;5013562;28;20479;-78
2021/05/07 05:34:49;;;;;;;1.50;1.20;;;6.90;98.20;;;;;;5014861;28;20468;-79
2021/05/07 05:37:16;;;;;;;1.53;1.23;;;7.00;98.20;;;;;;5009667;28;20516;-77
2021/05/07 05:39:43;;;;;;;1.50;1.30;;;7.00;98.20;;;;;;5017654;28;20910;-79
2021/05/07 05:42:10;;;;;;;1.50;1.20;;;7.00;98.20;;;;;;4998653;28;20552;-79
2021/05/07 05:44:37;;;;;;;1.50;1.30;;;7.10;98.20;;;;;;5013342;28;20519;-77
2021/05/07 05:47:03;;;;;;;1.50;1.20;;;7.10;98.20;;;;;;5011079;28;21066;-78
2021/05/07 05:49:29;;;;;;;1.50;1.20;;;7.20;98.20;;;;;;5008481;28;20488;-78
2021/05/07 05:51:56;;;;;;;1.50;1.20;;;7.20;98.20;;;;;;5006089;28;20486;-78
2021/05/07 05:54:23;;;;;;;1.50;1.20;;;7.20;98.20;;;;;;5016249;28;20490;-79
2021/05/07 05:56:49;;;;;;;1.50;1.20;;;7.10;98.20;;;;;;5011559;28;20494;-78
2021/05/07 05:59:16;;;;;;;1.50;1.20;;;7.10;98.20;;;;;;5015271;28;20653;-77
2021/05/07 06:01:42;;;;;;;1.50;1.10;;;6.90;98.20;;;;;;5001831;28;20904;-76
2021/05/07 06:04:08;;;;;;;1.60;1.30;;;6.80;98.20;;;;;;5012857;28;20521;-78
2021/05/07 06:06:35;;;;;;;1.50;1.23;;;6.70;98.20;;;;;;5006792;28;20567;-76
2021/05/07 06:09:01;;;;;;;1.50;1.20;;;6.50;98.20;;;;;;5014140;28;20495;-75
2021/05/07 06:11:28;;;;;;;1.50;1.20;;;6.40;98.20;;;;;;4999866;28;20877;-77
2021/05/07 06:13:54;;;;;;;1.50;1.20;;;6.40;98.20;;;;;;5014303;28;20464;-76
2021/05/07 06:16:21;;;;;;;1.50;1.13;;;6.30;98.20;;;;;;4999667;28;20550;-76
2021/05/07 06:18:47;;;;;;;1.50;1.20;;;6.30;98.20;;;;;;5013931;28;20464;-75
2021/05/07 06:21:14;;;;;;;2.37;2.17;;;6.40;98.20;;;;;;4993742;28;20517;-78
2021/05/07 06:23:40;;;;;;;1.50;1.30;;;6.50;98.20;;;;;;5005741;28;20903;-78
2021/05/07 06:26:06;;;;;;;1.50;1.20;;;6.60;98.20;;;;;;5000861;28;20884;-77
2021/05/07 06:28:33;;;;;;;1.50;1.20;;;6.60;98.20;;;;;;5021400;28;20483;-79
2021/05/07 06:31:00;;;;;;;1.50;1.30;;;6.70;98.20;;;;;;5001449;28;20460;-79
2021/05/07 06:33:26;;;;;;;1.53;1.20;;;6.70;98.20;;;;;;5002661;28;20465;-79
2021/05/07 06:35:53;;;;;;;1.50;1.20;;;6.80;98.20;;;;;;4994947;28;20468;-78
2021/05/07 06:38:19;;;;;;;1.50;1.10;;;6.80;98.20;;;;;;5027620;28;20460;-78
2021/05/07 06:40:46;;;;;;;1.50;1.20;;;6.80;98.20;;;;;;5002948;28;20465;-77
2021/05/07 06:43:14;;;;;;;1.60;1.30;;;6.90;98.20;;;;;;5014722;28;20644;-77
2021/05/07 06:45:41;;;;;;;1.60;1.40;;;6.90;98.20;;;;;;5007636;28;20474;-77
2021/05/07 06:48:07;;;;;;;1.50;1.20;;;6.90;98.20;;;;;;5017797;28;20484;-77
2021/05/07 06:50:34;;;;;;;1.60;1.30;;;6.90;98.20;;;;;;5005233;28;20499;-76
2021/05/07 06:53:00;;;;;;;1.50;1.20;;;6.90;98.20;;;;;;5008369;28;20518;-78
2021/05/07 06:55:26;;;;;;;1.50;1.20;;;6.90;98.20;;;;;;5009148;28;20460;-79
2021/05/07 06:57:53;;;;;;;1.50;1.20;;;6.90;98.20;;;;;;5008618;28;20998;-76
2021/05/07 07:00:20;;;;;;;1.50;1.20;;;6.90;98.20;;;;;;5006963;28;20882;-75
2021/05/07 07:02:47;;;;;;;1.50;1.20;;;6.80;98.20;;;;;;5014649;28;21017;-76
2021/05/07 07:05:14;;;;;;;1.50;1.30;;;6.80;98.20;;;;;;5008725;28;20468;-75
2021/05/07 07:07:40;;;;;;;1.50;1.20;;;6.80;98.20;;;;;;5012273;28;20487;-79
2021/05/07 07:10:07;;;;;;;1.50;1.20;;;6.80;98.20;;;;;;5012726;28;20460;-79
2021/05/07 07:12:34;;;;;;;1.50;1.20;;;6.80;98.20;;;;;;5015752;28;20569;-77
2021/05/07 07:15:01;;;;;;;1.50;1.20;;;6.80;98.20;;;;;;5006517;28;20477;-79
2021/05/07 07:17:27;;;;;;;1.50;1.20;;;6.90;98.20;;;;;;4994691;28;20492;-78
2021/05/07 07:19:54;;;;;;;1.53;1.30;;;6.90;98.20;;;;;;5012471;28;20941;-76
2021/05/07 07:22:21;;;;;;;1.50;1.20;;;7.00;98.20;;;;;;5001389;28;20492;-78
2021/05/07 07:24:49;;;;;;;1.50;1.20;;;7.00;98.20;;;;;;5003847;28;20452;-78
2021/05/07 07:27:15;;;;;;;1.50;1.20;;;7.10;98.20;;;;;;4997880;28;20511;-79
2021/05/07 07:29:42;;;;;;;1.50;1.20;;;7.20;98.20;;;;;;5011323;28;20488;-80
2021/05/07 07:32:08;;;;;;;1.50;1.20;;;7.20;98.20;;;;;;5007749;28;20547;-79
2021/05/07 07:34:34;;;;;;;1.50;1.13;;;7.30;98.20;;;;;;5010489;28;20460;-76
2021/05/07 07:37:01;;;;;;;1.50;1.20;;;7.30;98.20;;;;;;5009933;28;20553;-76
2021/05/07 07:39:28;;;;;;;1.50;1.20;;;7.10;98.20;;;;;;5014090;28;20472;-75
2021/05/07 07:41:54;;;;;;;1.50;1.20;;;6.80;98.20;;;;;;5007064;28;20483;-75
2021/05/07 07:44:20;;;;;;;1.50;1.20;;;6.60;98.20;;;;;;5014792;28;20887;-75
2021/05/07 07:46:46;;;;;;;1.50;1.40;;;6.40;98.20;;;;;;4997276;28;20797;-76
2021/05/07 07:49:13;;;;;;;3.20;2.90;;;6.30;98.20;;;;;;5004173;28;20567;-77
2021/05/07 07:51:39;;;;;;;1.53;1.23;;;6.20;98.20;;;;;;5001875;28;20475;-77
2021/05/07 07:54:08;;;;;;;1.50;1.20;;;6.20;98.20;;;;;;5011511;28;20503;-76
2021/05/07 07:56:34;;;;;;;1.50;1.30;;;6.00;98.20;;;;;;5003599;28;20864;-76
2021/05/07 07:59:01;;;;;;;1.50;1.20;;;5.90;98.20;;;;;;5012912;28;20471;-77
2021/05/07 08:01:27;;;;;;;1.50;1.30;;;5.80;98.20;;;;;;4989306;28;20481;-76
2021/05/07 08:03:55;;;;;;;1.50;1.20;;;5.70;98.20;;;;;;5004416;28;20456;-75
2021/05/07 08:06:21;;;;;;;1.50;1.20;;;5.70;98.20;;;;;;5000079;28;20894;-76
2021/05/07 08:08:52;;;;;;;1.50;1.20;;;5.70;98.20;;;;;;5013322;28;20494;-77
2021/05/07 08:11:48;;;;;;;1.50;1.30;;;5.60;98.20;;;;;;4990627;28;20549;-76
2021/05/07 08:14:14;;;;;;;1.53;1.30;;;5.60;98.20;;;;;;5013325;28;20531;-78
2021/05/07 08:16:40;;;;;;;1.50;1.20;;;5.60;98.20;;;;;;5004986;28;20494;-77
2021/05/07 08:19:07;;;;;;;1.50;1.20;;;5.60;98.20;;;;;;5013656;28;20522;-77
2021/05/07 08:21:34;;;;;;;1.50;1.20;;;5.60;98.20;;;;;;4998811;28;20479;-77
2021/05/07 08:24:00;;;;;;;1.57;1.27;;;5.60;98.20;;;;;;5015825;28;20483;-78
2021/05/07 08:26:27;;;;;;;1.50;1.20;;;5.70;98.20;;;;;;5005339;28;20501;-78
2021/05/07 08:28:53;;;;;;;1.50;1.30;;;5.80;98.20;;;;;;5017552;28;20582;-76
2021/05/07 08:31:22;;;;;;;1.50;1.20;;;6.00;98.20;;;;;;4993402;28;20518;-78
2021/05/07 08:33:49;;;;;;;1.50;1.20;;;6.20;98.20;;;;;;5018974;28;20521;-77
2021/05/07 08:36:15;;;;;;;1.50;1.20;;;6.40;98.20;;;;;;5002516;28;21147;-78
2021/05/07 08:38:41;;;;;;;1.50;1.20;;;6.80;98.20;;;;;;5020495;28;20464;-81
2021/05/07 08:41:08;;;;;;;1.50;1.10;;;7.00;98.20;;;;;;4998261;28;20492;-78
2021/05/07 08:43:35;;;;;;;1.50;1.10;;;7.10;98.20;;;;;;5008707;28;20475;-78
2021/05/07 08:46:04;;;;;;;1.57;1.30;;;7.40;98.20;;;;;;4996400;28;20507;-76
2021/05/07 08:48:30;;;;;;;1.50;1.20;;;7.90;98.20;;;;;;5021464;28;20492;-79
2021/05/07 08:50:56;;;;;;;1.50;1.10;;;8.30;98.20;;;;;;5000651;28;20533;-81
2021/05/07 08:53:22;;;;;;;1.53;1.10;;;8.70;98.20;;;;;;5003152;28;20469;-77
2021/05/07 08:55:49;;;;;;;1.53;1.10;;;9.10;98.20;;;;;;4997377;28;20475;-77
2021/05/07 08:58:16;;;;;;;1.50;1.10;;;9.40;98.20;;;;;;5024091;28;21253;-78
2021/05/07 09:00:44;;;;;;;1.50;1.00;;;9.60;98.20;;;;;;5008814;28;20530;-78
2021/05/07 09:03:13;;;;;;;1.50;1.03;;;9.90;98.20;;;;;;5005129;28;20479;-78
2021/05/07 09:05:39;;;;;;;1.50;1.00;;;10.20;98.20;;;;;;5004613;28;20818;-76
2021/05/07 09:08:07;;;;;;;1.50;1.00;;;10.40;97.50;;;;;;5005608;28;20483;-77
2021/05/07 09:10:35;;;;;;;1.50;1.00;;;10.60;98.20;;;;;;5001712;28;20469;-78
2021/05/07 09:13:01;;;;;;;1.50;1.00;;;10.90;97.80;;;;;;4992452;28;20522;-75
2021/05/07 09:15:43;;;;;;;1.50;1.00;;;11.00;96.10;;;;;;4988844;28;20469;-76
2021/05/07 09:18:10;;;;;;;1.50;1.00;;;11.00;95.20;;;;;;5011885;28;20488;-77
2021/05/07 09:20:38;;;;;;;1.50;0.90;;;10.80;92.90;;;;;;5006539;28;20468;-76
2021/05/07 09:23:10;;;;;;;1.50;1.10;;;10.50;95.70;;;;;;5010326;28;20475;-78
2021/05/07 09:25:37;;;;;;;1.50;1.00;;;10.50;96.70;;;;;;5008557;28;20506;-78
2021/05/07 09:28:11;;;;;;;2.00;1.60;;;10.40;94.70;;;;;;4990652;28;20485;-81
2021/05/07 09:30:37;;;;;;;1.50;1.10;;;10.20;93.70;;;;;;5004499;28;20460;-80
2021/05/07 09:33:10;;;;;;;1.50;1.10;;;10.10;94.70;;;;;;5008420;28;20554;-77
2021/05/07 09:35:38;;;;;;;1.50;1.00;;;10.10;95.60;;;;;;5006404;28;20528;-79
2021/05/07 09:38:06;;;;;;;1.50;1.10;;;10.30;96.60;;;;;;4998590;28;20929;-76
2021/05/07 09:40:34;;;;;;;1.50;1.00;;;10.50;95.20;;;;;;5004750;28;20468;-76
2021/05/07 09:43:15;;;;;;;1.50;1.00;;;10.40;92.60;;;;;;4994146;28;20567;-77
2021/05/07 09:45:45;;;;;;;1.50;1.00;;;10.40;93.20;;;;;;5007227;28;20934;-76
2021/05/07 09:48:20;;;;;;;1.50;1.00;;;10.40;95.20;;;;;;4999868;28;20579;-76
2021/05/07 09:50:48;;;;;;;1.50;0.90;;;10.40;92.50;;;;;;4997207;28;20470;-77
2021/05/07 09:53:17;;;;;;;1.50;1.07;;;10.60;94.00;;;;;;5027225;28;20476;-77
2021/05/07 09:55:45;;;;;;;1.50;1.00;;;11.10;90.70;;;;;;5014106;28;20947;-78
2021/05/07 09:58:11;;;;;;;1.50;1.00;;;11.40;90.70;;;;;;4997075;28;20464;-79
2021/05/07 10:00:38;;;;;;;1.50;1.00;;;11.50;89.90;;;;;;5009453;28;21066;-76
2021/05/07 10:03:05;;;;;;;1.50;1.00;;;11.40;89.30;;;;;;5017054;28;20474;-77
2021/05/07 10:05:32;;;;;;;1.50;1.00;;;11.40;88.80;;;;;;5012834;28;20471;-77
2021/05/07 10:07:59;;;;;;;1.50;0.97;;;11.60;91.60;;;;;;5019031;28;20479;-76
2021/05/07 10:10:30;;;;;;;1.50;1.00;;;11.90;87.70;;;;;;5012257;28;20460;-77
2021/05/07 10:12:59;;;;;;;1.50;1.00;;;12.20;86.50;;;;;;5021688;28;20570;-79
2021/05/07 10:15:28;;;;;;;1.50;0.93;;;12.50;86.60;;;;;;4999331;28;20457;-79
2021/05/07 10:17:54;;;;;;;1.50;1.00;;;12.70;84.70;;;;;;5012805;28;20491;-80
2021/05/07 10:20:25;;;;;;;1.50;0.90;;;12.80;85.30;;;;;;4999469;28;20473;-77
2021/05/07 10:22:53;;;;;;;1.50;0.90;;;12.70;83.30;;;;;;5002495;28;20494;-78
2021/05/07 10:25:22;;;;;;;1.50;0.90;;;12.60;84.80;;;;;;4992783;28;20469;-77
2021/05/07 10:28:13;;;;;;;1.50;1.00;;;12.90;86.30;;;;;;5015856;28;20515;-77
2021/05/07 10:30:40;;;;;;;1.50;0.90;;;13.00;83.60;;;;;;4997783;28;20992;-75
2021/05/07 10:33:14;;;;;;;1.50;0.90;;;13.30;84.20;;;;;;5014009;28;20479;-79
2021/05/07 10:35:41;;;;;;;1.50;1.00;;;13.40;81.40;;;;;;5008823;28;20491;-76
2021/05/07 10:38:14;;;;;;;1.50;0.90;;;13.40;81.80;;;;;;5007731;28;20484;-77
2021/05/07 10:40:42;;;;;;;1.50;0.90;;;13.30;80.50;;;;;;5005867;28;20464;-79
2021/05/07 10:43:10;;;;;;;1.50;1.00;;;13.00;79.80;;;;;;5012996;28;20486;-76
2021/05/07 10:45:48;;;;;;;1.50;0.93;;;13.00;80.20;;;;;;5002146;28;20470;-77
2021/05/07 10:48:19;;;;;;;1.60;1.20;;;13.30;80.60;;;;;;4973727;28;20493;-76
2021/05/07 10:50:47;;;;;;;1.50;0.90;;;13.60;79.30;;;;;;4992403;28;20464;-79
2021/05/07 10:53:25;;;;;;;1.50;0.90;;;13.80;79.50;;;;;;5019922;28;20487;-76
2021/05/07 10:55:52;;;;;;;1.50;1.00;;;13.80;78.30;;;;;;4987685;28;20467;-76
2021/05/07 10:58:30;;;;;;;1.47;0.90;;;13.70;77.80;;;;;;5024441;22;20499;-78
2021/05/07 11:00:57;;;;;;;1.50;0.90;;;13.80;76.80;;;;;;5019372;28;20721;-77
2021/05/07 11:03:23;;;;;;;1.50;1.00;;;13.80;78.00;;;;;;5026484;28;20526;-80
2021/05/07 11:05:52;;;;;;;1.50;1.00;;;14.00;77.10;;;;;;5014055;28;20557;-76
2021/05/07 11:08:19;;;;;;;1.50;1.00;;;14.00;77.60;;;;;;5041565;28;20549;-76
2021/05/07 11:10:49;;;;;;;1.50;0.90;;;14.00;77.80;;;;;;5022633;28;20863;-76
2021/05/07 11:13:16;;;;;;;1.50;0.97;;;14.20;76.60;;;;;;5038786;28;20872;-78
2021/05/07 11:15:42;;;;;;;1.50;1.00;;;14.60;75.80;;;;;;5023985;28;20506;-78
2021/05/07 11:18:10;;;;;;;1.50;0.90;;;14.90;73.20;;;;;;5029583;28;20479;-78
2021/05/07 11:20:37;;;;;;;1.50;1.10;;;15.00;73.60;;;;;;5027774;28;21041;-79
2021/05/07 11:23:05;;;;;;;1.50;1.00;;;15.00;73.60;;;;;;5009410;28;20481;-77
2021/05/07 11:25:32;;;;;;;1.50;0.90;;;15.30;74.00;;;;;;5018420;28;20606;-80
2021/05/07 11:28:12;;;;;;;1.50;0.90;;;15.50;73.40;;;;;;5009419;28;20734;-79
2021/05/07 11:30:52;;;;;;;1.50;0.90;;;15.60;72.30;;;;;;5016661;28;20974;-77
2021/05/07 11:33:20;;;;;;;1.50;0.90;;;15.60;71.80;;;;;;5010989;28;21087;-80
2021/05/07 11:35:46;;;;;;;1.50;0.90;;;15.50;71.60;;;;;;5016678;28;20467;-80
2021/05/07 11:38:13;;;;;;;1.50;0.90;;;15.40;71.30;;;;;;5021411;28;20529;-80
2021/05/07 11:40:41;;;;;;;1.50;0.90;;;15.20;72.20;;;;;;5025746;28;20478;-78
2021/05/07 11:43:13;;;;;;;1.50;1.00;;;14.90;72.60;;;;;;5010498;28;21101;-79
2021/05/07 11:45:40;;;;;;;1.50;1.00;;;14.70;74.30;;;;;;5021197;28;20517;-76
2021/05/07 11:48:07;;;;;;;1.50;1.00;;;14.50;72.70;;;;;;5034142;28;20473;-79
2021/05/07 11:50:34;;;;;;;1.50;1.00;;;14.40;74.80;;;;;;5020606;28;20537;-78
2021/05/07 11:53:01;;;;;;;1.50;1.00;;;14.80;75.60;;;;;;5024117;28;20489;-77
2021/05/07 11:55:28;;;;;;;1.50;0.90;;;15.20;74.40;;;;;;5019796;28;20470;-77
2021/05/07 11:57:59;;;;;;;1.50;0.90;;;15.50;73.10;;;;;;5011409;28;20488;-77
2021/05/07 12:00:27;;;;;;;1.50;0.90;;;15.90;73.70;;;;;;5025952;28;20476;-78
2021/05/07 12:03:01;;;;;;;1.50;0.90;;;16.20;72.10;;;;;;5027324;28;20489;-77
2021/05/07 12:05:29;;;;;;;1.50;0.90;;;16.60;71.50;;;;;;5023899;28;20467;-79
2021/05/07 12:07:56;;;;;;;1.50;0.90;;;16.80;70.80;;;;;;5028996;28;20489;-77
2021/05/07 12:10:26;;;;;;;1.50;0.90;;;16.90;69.00;;;;;;5015396;28;20499;-76
2021/05/07 12:12:54;;;;;;;1.50;0.90;;;17.00;69.00;;;;;;5004698;28;20483;-79
2021/05/07 12:15:23;;;;;;;1.50;0.90;;;17.20;69.30;;;;;;5011300;28;21040;-79
2021/05/07 12:17:52;;;;;;;1.50;0.90;;;17.30;68.90;;;;;;5025165;28;20490;-80
2021/05/07 12:20:19;;;;;;;1.50;0.90;;;17.30;68.60;;;;;;5020952;28;20491;-80
2021/05/07 12:22:47;;;;;;;1.50;0.90;;;17.40;68.10;;;;;;5014238;28;20475;-80
2021/05/07 12:25:15;;;;;;;1.50;0.90;;;17.30;66.40;;;;;;5016109;28;20486;-79
2021/05/07 12:27:44;;;;;;;1.50;0.90;;;17.00;67.30;;;;;;5028730;28;20497;-77
2021/05/07 12:30:24;;;;;;;1.50;1.00;;;16.60;66.70;;;;;;5020239;28;20590;-80
2021/05/07 12:32:59;;;;;;;1.50;0.90;;;16.40;66.40;;;;;;5015428;28;20581;-79
2021/05/07 12:35:42;;;;;;;1.50;0.90;;;16.30;67.10;;;;;;5023164;28;20856;-81
2021/05/07 12:38:23;;;;;;;1.50;0.90;;;16.50;69.80;;;;;;5004752;28;20483;-79
2021/05/07 12:40:50;;;;;;;1.50;1.00;;;16.50;66.00;;;;;;5001439;28;20456;-80
2021/05/07 12:43:16;;;;;;;1.50;0.90;;;16.40;67.90;;;;;;5037258;28;20468;-79
2021/05/07 12:45:46;;;;;;;1.50;0.93;;;16.30;67.90;;;;;;5023227;28;20477;-78
2021/05/07 12:48:14;;;;;;;1.50;0.90;;;16.50;66.70;;;;;;5007804;28;20511;-80
2021/05/07 12:50:40;;;;;;;1.50;0.90;;;16.80;67.00;;;;;;5012624;28;20518;-78
2021/05/07 12:53:10;;;;;;;1.43;0.90;;;17.00;66.80;;;;;;5012370;28;20539;-78
2021/05/07 12:55:38;;;;;;;1.50;0.93;;;17.30;66.00;;;;;;5021987;28;20998;-78